createdAt,value
2023-01-27T00:03:06.488Z,3.95
2023-01-27T00:08:29.224Z,3.98
2023-01-27T00:13:49.615Z,3.91
2023-01-27T00:19:10.475Z,3.83
2023-01-27T00:24:37.394Z,3.68
2023-01-27T00:29:58.447Z,3.51
2023-01-27T00:35:20.728Z,3.38
2023-01-27T00:41:01.635Z,3.26
2023-01-27T00:46:24.544Z,3.08
2023-01-27T00:51:45.110Z,3.03
2023-01-27T00:57:05.522Z,3.03
2023-01-27T01:02:26.343Z,3.07
2023-01-27T01:07:47.158Z,2.99
2023-01-27T01:13:08.664Z,2.87
2023-01-27T01:18:29.241Z,2.84
2023-01-27T01:23:49.645Z,2.74
2023-01-27T01:29:10.267Z,2.65
2023-01-27T01:34:31.055Z,2.61
2023-01-27T01:39:52.089Z,2.52
2023-01-27T01:45:31.613Z,2.42
2023-01-27T01:50:57.626Z,2.30
2023-01-27T01:56:23.578Z,2.26
2023-01-27T02:01:44.425Z,2.23
2023-01-27T02:07:09.753Z,2.26
2023-01-27T02:12:30.224Z,2.40
2023-01-27T02:17:50.925Z,2.45
2023-01-27T02:23:37.252Z,2.50
2023-01-27T02:29:03.015Z,2.54
2023-01-27T02:34:30.798Z,2.57
2023-01-27T02:39:55.690Z,2.69
2023-01-27T02:45:19.378Z,2.78
2023-01-27T02:50:41.195Z,2.83
2023-01-27T02:56:01.977Z,2.90
2023-01-27T03:01:24.314Z,2.98
2023-01-27T03:06:45.380Z,3.08
2023-01-27T03:12:21.004Z,3.10
2023-01-27T03:18:00.478Z,3.14
2023-01-27T03:23:20.863Z,3.15
2023-01-27T03:29:05.080Z,3.15
2023-01-27T03:34:28.822Z,3.14
2023-01-27T03:40:16.658Z,3.15
2023-01-27T03:45:55.557Z,3.17
2023-01-27T03:51:16.944Z,3.11
2023-01-27T03:56:37.464Z,3.12
2023-01-27T04:02:16.796Z,3.18
2023-01-27T04:07:37.649Z,3.17
2023-01-27T04:12:58.161Z,3.14
2023-01-27T04:18:18.977Z,3.15
2023-01-27T04:23:39.519Z,3.15
2023-01-27T04:29:01.574Z,3.17
2023-01-27T04:34:22.296Z,3.19
2023-01-27T04:39:45.681Z,3.19
2023-01-27T04:45:06.974Z,3.22
2023-01-27T04:50:27.535Z,3.16
2023-01-27T04:55:49.638Z,3.21
2023-01-27T05:01:10.263Z,3.14
2023-01-27T05:06:30.989Z,3.17
2023-01-27T05:11:51.556Z,3.12
2023-01-27T05:17:12.125Z,3.16
2023-01-27T05:22:32.536Z,3.16
2023-01-27T05:27:53.785Z,3.13
2023-01-27T05:33:14.324Z,3.05
2023-01-27T05:38:35.488Z,3.02
2023-01-27T05:43:56.122Z,3.02
2023-01-27T05:49:17.113Z,3.04
2023-01-27T05:54:37.875Z,3.09
2023-01-27T05:59:58.334Z,3.08
2023-01-27T06:05:19.197Z,3.06
2023-01-27T06:10:39.814Z,3.03
2023-01-27T06:16:02.360Z,2.97
2023-01-27T06:21:24.265Z,2.90
2023-01-27T06:26:45.004Z,2.91
2023-01-27T06:32:05.966Z,2.92
2023-01-27T06:37:29.347Z,2.92
2023-01-27T06:42:50.389Z,2.96
2023-01-27T06:48:10.930Z,2.95
2023-01-27T06:53:32.551Z,3.01
2023-01-27T06:58:53.354Z,3.02
2023-01-27T07:04:14.353Z,3.00
2023-01-27T07:09:50.616Z,3.02
2023-01-27T07:15:13.279Z,3.03
2023-01-27T07:20:34.399Z,3.04
2023-01-27T07:25:55.580Z,3.03
2023-01-27T07:31:16.691Z,3.02
2023-01-27T07:36:37.648Z,2.95
2023-01-27T07:41:58.913Z,2.96
2023-01-27T07:47:19.943Z,2.98
2023-01-27T07:52:40.703Z,2.97
2023-01-27T07:58:01.595Z,2.96
2023-01-27T08:03:25.482Z,2.95
2023-01-27T08:08:46.224Z,2.97
2023-01-27T08:14:07.417Z,3.01
2023-01-27T08:19:28.063Z,3.07
2023-01-27T08:24:49.586Z,3.15
2023-01-27T08:30:11.308Z,3.22
2023-01-27T08:35:34.419Z,3.22
2023-01-27T08:40:55.073Z,3.29
2023-01-27T08:46:15.934Z,3.43
2023-01-27T08:51:36.663Z,3.48
2023-01-27T08:56:57.298Z,3.51
2023-01-27T09:02:18.223Z,3.60
2023-01-27T09:07:38.808Z,3.69
2023-01-27T09:12:59.401Z,3.72
2023-01-27T09:18:20.807Z,3.76
2023-01-27T09:23:41.628Z,3.83
2023-01-27T09:29:02.812Z,3.98
2023-01-27T09:34:23.976Z,4.15
2023-01-27T09:39:51.808Z,4.32
2023-01-27T09:45:20.951Z,4.63
2023-01-27T09:50:48.653Z,4.74
2023-01-27T09:56:23.942Z,4.85
2023-01-27T10:01:56.806Z,4.95
2023-01-27T10:07:46.228Z,5.11
2023-01-27T10:13:34.617Z,5.11
2023-01-27T10:19:09.287Z,5.03
2023-01-27T10:24:44.212Z,5.20
2023-01-27T10:30:37.187Z,5.30
2023-01-27T10:36:14.415Z,5.36
2023-01-27T10:41:50.689Z,5.56
2023-01-27T10:47:45.615Z,5.82
2023-01-27T10:53:20.109Z,7.13
2023-01-27T10:59:03.045Z,8.66
2023-01-27T11:04:43.504Z,8.91
2023-01-27T11:10:08.979Z,8.96
2023-01-27T11:15:33.679Z,9.00
2023-01-27T11:21:01.304Z,9.38
2023-01-27T11:26:30.171Z,9.89
2023-01-27T11:31:57.050Z,10.31
2023-01-27T11:37:21.050Z,10.77
2023-01-27T11:42:42.471Z,10.97
2023-01-27T11:48:07.954Z,11.21
2023-01-27T11:53:36.794Z,11.06
2023-01-27T11:59:05.927Z,10.76
2023-01-27T12:04:55.207Z,10.33
2023-01-27T12:10:26.274Z,10.19
2023-01-27T12:15:53.064Z,10.40
2023-01-27T12:21:14.018Z,10.71
2023-01-27T12:26:38.316Z,11.04
2023-01-27T12:32:00.818Z,11.34
2023-01-27T12:37:30.195Z,11.49
2023-01-27T12:43:18.879Z,11.78
2023-01-27T12:48:50.117Z,11.92
2023-01-27T12:54:34.918Z,12.00
2023-01-27T12:59:58.791Z,12.10
2023-01-27T13:05:20.185Z,12.25
2023-01-27T13:10:50.281Z,12.05
2023-01-27T13:16:26.404Z,11.82
2023-01-27T13:21:52.218Z,11.01
2023-01-27T13:27:20.094Z,10.10
2023-01-27T13:32:44.476Z,9.37
2023-01-27T13:38:10.668Z,8.96
2023-01-27T13:43:40.401Z,8.53
2023-01-27T13:49:17.405Z,8.24
2023-01-27T13:54:38.051Z,7.99
2023-01-27T14:00:06.076Z,7.76
2023-01-27T14:05:54.042Z,7.65
2023-01-27T14:11:26.076Z,7.86
2023-01-27T14:17:04.209Z,7.84
2023-01-27T14:22:47.517Z,7.54
2023-01-27T14:28:14.514Z,7.30
2023-01-27T14:33:53.631Z,7.12
2023-01-27T14:39:46.169Z,6.76
2023-01-27T14:45:15.464Z,6.55
2023-01-27T14:50:54.093Z,6.37
2023-01-27T14:56:39.852Z,6.21
2023-01-27T15:02:24.508Z,5.93
2023-01-27T15:08:18.549Z,5.68
2023-01-27T15:13:52.859Z,5.47
2023-01-27T15:19:34.525Z,5.14
2023-01-27T15:25:04.328Z,4.92
2023-01-27T15:30:31.566Z,4.73
2023-01-27T15:36:27.160Z,4.59
2023-01-27T15:42:10.417Z,4.40
2023-01-27T15:47:33.572Z,4.22
2023-01-27T15:53:02.841Z,4.03
2023-01-27T15:58:28.242Z,3.89
2023-01-27T16:03:49.892Z,3.77
2023-01-27T16:09:21.188Z,3.63
2023-01-27T16:14:43.714Z,3.51
2023-01-27T16:20:23.324Z,3.39
2023-01-27T16:25:49.203Z,3.24
2023-01-27T16:31:18.695Z,3.14
2023-01-27T16:36:39.295Z,3.05
2023-01-27T16:42:00.638Z,2.98
2023-01-27T16:47:27.194Z,2.86
2023-01-27T16:52:47.781Z,2.76
2023-01-27T16:58:45.564Z,2.67
2023-01-27T17:04:20.134Z,2.55
2023-01-27T17:09:43.436Z,2.44
2023-01-27T17:15:18.364Z,2.35
2023-01-27T17:20:40.879Z,2.31
2023-01-27T17:26:15.756Z,2.17
2023-01-27T17:31:37.513Z,2.16
2023-01-27T17:37:16.175Z,1.98
2023-01-27T17:42:39.116Z,1.90
2023-01-27T17:48:00.945Z,1.84
2023-01-27T17:53:24.708Z,1.75
2023-01-27T17:58:48.647Z,1.66
2023-01-27T18:04:10.743Z,1.60
2023-01-27T18:09:31.316Z,1.52
2023-01-27T18:14:51.930Z,1.49
2023-01-27T18:20:30.278Z,1.42
2023-01-27T18:26:13.941Z,1.35
2023-01-27T18:31:37.738Z,1.27
2023-01-27T18:37:06.221Z,1.20
2023-01-27T18:42:29.906Z,1.13
2023-01-27T18:47:51.404Z,1.06
2023-01-27T18:53:14.822Z,0.99
2023-01-27T18:58:36.159Z,0.94
2023-01-27T19:03:58.209Z,0.90
2023-01-27T19:09:19.216Z,0.88
2023-01-27T19:14:41.792Z,0.87
2023-01-27T19:20:12.944Z,0.87
2023-01-27T19:25:33.775Z,0.86
2023-01-27T19:30:54.609Z,0.80
2023-01-27T19:36:22.703Z,0.73
2023-01-27T19:41:47.135Z,0.64
2023-01-27T19:47:14.082Z,0.55
2023-01-27T19:52:34.982Z,0.58
2023-01-27T19:57:55.471Z,0.57
2023-01-27T20:03:16.347Z,0.52
2023-01-27T20:08:37.179Z,0.49
2023-01-27T20:13:58.469Z,0.36
2023-01-27T20:19:19.062Z,0.29
2023-01-27T20:24:39.930Z,0.25
2023-01-27T20:30:00.655Z,0.18
2023-01-27T20:35:22.371Z,0.14
2023-01-27T20:40:43.160Z,0.10
2023-01-27T20:46:16.219Z,0.11
2023-01-27T20:51:36.916Z,0.12
2023-01-27T20:56:57.757Z,0.07
2023-01-27T21:02:18.574Z,0.01
2023-01-27T21:07:39.239Z,-0.08
2023-01-27T21:12:59.667Z,-0.17
2023-01-27T21:18:20.117Z,-0.27
2023-01-27T21:23:40.631Z,-0.30
2023-01-27T21:29:01.559Z,-0.33
2023-01-27T21:34:23.808Z,-0.34
2023-01-27T21:39:44.658Z,-0.39
2023-01-27T21:45:16.409Z,-0.44
2023-01-27T21:50:37.505Z,-0.49
2023-01-27T21:56:04.729Z,-0.53
2023-01-27T22:01:26.820Z,-0.57
2023-01-27T22:06:47.643Z,-0.59
2023-01-27T22:12:10.218Z,-0.65
2023-01-27T22:17:30.977Z,-0.71
2023-01-27T22:22:52.195Z,-0.76
2023-01-27T22:28:13.004Z,-0.81
2023-01-27T22:33:33.447Z,-0.85
2023-01-27T22:38:54.244Z,-0.88
2023-01-27T22:44:15.159Z,-0.97
2023-01-27T22:49:35.869Z,-0.99
2023-01-27T22:54:56.712Z,-1.04
2023-01-27T23:00:17.609Z,-1.07
2023-01-27T23:05:38.049Z,-1.16
2023-01-27T23:11:04.388Z,-1.22
2023-01-27T23:16:25.399Z,-1.28
2023-01-27T23:21:46.465Z,-1.22
2023-01-27T23:27:06.820Z,-1.20
2023-01-27T23:32:27.430Z,-1.26
2023-01-27T23:37:47.769Z,-1.27
2023-01-27T23:43:09.677Z,-1.28
2023-01-27T23:48:30.440Z,-1.23
2023-01-27T23:53:51.264Z,-1.31
2023-01-27T23:59:13.169Z,-1.41
